Time;durP1;ratioP1;P1;durP2;ratioP2;P2;SDS_P1;SDS_P2;PMS_P1;PMS_P2;Temp;Humidity;BMP_temperature;BMP_pressure;BME280_temperature;BME280_humidity;BME280_pressure;Samples;Min_cycle;Max_cycle;Signal;HPM_P1;HPM_P2
2021/07/13 00:01:15;;;;;;;1.88;1.63;;;;;;;;;;4917587;29;20183;-85
2021/07/13 00:03:42;;;;;;;2.35;1.92;;;;;;;;;;4917679;29;20210;-85
2021/07/13 00:06:11;;;;;;;1.80;1.70;;;;;;;;;;4917535;29;20193;-86
2021/07/13 00:08:40;;;;;;;2.15;2.00;;;;;;;;;;4917619;29;20190;-85
2021/07/13 00:11:07;;;;;;;1.77;1.67;;;;;;;;;;4917469;29;20212;-86
2021/07/13 00:13:36;;;;;;;1.83;1.73;;;;;;;;;;4917434;29;20182;-85
2021/07/13 00:16:06;;;;;;;2.20;2.10;;;;;;;;;;4917346;29;20223;-85
2021/07/13 00:18:37;;;;;;;2.00;1.90;;;;;;;;;;4916684;29;20689;-85
2021/07/13 00:21:18;;;;;;;2.00;1.83;;;;;;;;;;4916918;29;20187;-85
2021/07/13 00:23:45;;;;;;;3.92;2.30;;;;;;;;;;4898259;29;20250;-85
2021/07/13 00:26:24;;;;;;;2.90;2.00;;;;;;;;;;4898172;29;20218;-86
2021/07/13 00:28:54;;;;;;;2.40;2.30;;;;;;;;;;4898465;29;20297;-86
2021/07/13 00:31:24;;;;;;;2.22;2.13;;;;;;;;;;4897933;29;20197;-85
2021/07/13 00:33:54;;;;;;;2.03;1.92;;;;;;;;;;4898093;29;20582;-85
2021/07/13 00:36:22;;;;;;;2.10;2.00;;;;;;;;;;4899798;29;20251;-86
2021/07/13 00:38:49;;;;;;;2.17;2.08;;;;;;;;;;4898284;29;20218;-86
2021/07/13 00:41:25;;;;;;;1.90;1.80;;;;;;;;;;4897704;29;20207;-86
2021/07/13 00:43:58;;;;;;;2.38;2.03;;;;;;;;;;4897953;29;20634;-86
2021/07/13 00:46:29;;;;;;;2.08;1.83;;;;;;;;;;4898058;29;20194;-86
2021/07/13 00:49:03;;;;;;;1.90;1.80;;;;;;;;;;4898134;29;20579;-86
2021/07/13 00:51:31;;;;;;;1.90;1.80;;;;;;;;;;4898176;29;20290;-85
2021/07/13 00:54:02;;;;;;;1.70;1.60;;;;;;;;;;4898228;29;20201;-86
2021/07/13 00:56:30;;;;;;;2.45;1.92;;;;;;;;;;4910250;29;20194;-86
2021/07/13 00:58:58;;;;;;;2.17;2.05;;;;;;;;;;4916442;29;20226;-85
2021/07/13 01:01:29;;;;;;;3.83;1.50;;;;;;;;;;4916930;29;20234;-85
2021/07/13 01:04:05;;;;;;;1.75;1.65;;;;;;;;;;4916816;29;20565;-85
2021/07/13 01:06:44;;;;;;;1.92;1.83;;;;;;;;;;4916384;29;20209;-85
2021/07/13 01:09:16;;;;;;;2.00;1.90;;;;;;;;;;4916736;29;20194;-85
2021/07/13 01:11:48;;;;;;;2.15;2.05;;;;;;;;;;4916562;29;20233;-85
2021/07/13 01:14:26;;;;;;;2.17;2.08;;;;;;;;;;4909368;29;20726;-85
2021/07/13 01:17:03;;;;;;;2.20;2.10;;;;;;;;;;4897838;29;20243;-86
2021/07/13 01:19:54;;;;;;;2.60;2.40;;;;;;;;;;4897583;29;20215;-85
2021/07/13 01:22:28;;;;;;;2.10;2.00;;;;;;;;;;4897501;29;20649;-85
2021/07/13 01:25:11;;;;;;;2.65;2.45;;;;;;;;;;4897389;29;20226;-86
2021/07/13 01:28:03;;;;;;;2.20;2.10;;;;;;;;;;4908434;29;20201;-85
2021/07/13 01:30:41;;;;;;;2.58;2.40;;;;;;;;;;4916335;29;20658;-85
2021/07/13 01:33:14;;;;;;;2.40;2.30;;;;;;;;;;4918638;29;20601;-86
2021/07/13 01:35:47;;;;;;;2.10;2.00;;;;;;;;;;4920439;29;20198;-85
2021/07/13 01:38:17;;;;;;;2.10;2.00;;;;;;;;;;4920397;29;20566;-85
2021/07/13 01:40:48;;;;;;;2.50;2.30;;;;;;;;;;4920515;29;20236;-85
2021/07/13 01:43:23;;;;;;;2.80;2.10;;;;;;;;;;4920275;29;20230;-86
2021/07/13 01:45:51;;;;;;;2.08;1.98;;;;;;;;;;4920176;29;20206;-86
2021/07/13 01:48:28;;;;;;;2.85;2.20;;;;;;;;;;4920287;29;20201;-85
2021/07/13 01:50:59;;;;;;;2.08;1.90;;;;;;;;;;4920191;29;20198;-85
2021/07/13 01:53:30;;;;;;;2.38;2.22;;;;;;;;;;4920228;29;20244;-86
2021/07/13 01:56:00;;;;;;;2.05;1.95;;;;;;;;;;4919881;29;20194;-86
2021/07/13 01:58:40;;;;;;;2.22;2.13;;;;;;;;;;4920007;29;20202;-86
2021/07/13 02:01:12;;;;;;;2.65;2.03;;;;;;;;;;4911447;29;20187;-86
2021/07/13 02:03:45;;;;;;;2.13;1.88;;;;;;;;;;4901138;29;20195;-86
2021/07/13 02:06:25;;;;;;;1.70;1.60;;;;;;;;;;4900927;29;20207;-86
2021/07/13 02:08:58;;;;;;;2.58;1.75;;;;;;;;;;4915651;29;20198;-86
2021/07/13 02:11:32;;;;;;;2.03;1.92;;;;;;;;;;4919584;29;20226;-85
2021/07/13 02:14:01;;;;;;;2.28;2.10;;;;;;;;;;4919947;29;20199;-85
2021/07/13 02:16:32;;;;;;;2.53;2.33;;;;;;;;;;4919856;29;20193;-85
2021/07/13 02:18:59;;;;;;;1.98;1.88;;;;;;;;;;4919477;29;20215;-86
2021/07/13 02:21:28;;;;;;;1.85;1.75;;;;;;;;;;4919146;29;20225;-86
2021/07/13 02:23:56;;;;;;;1.65;1.55;;;;;;;;;;4919132;29;20740;-86
2021/07/13 02:26:31;;;;;;;1.50;1.40;;;;;;;;;;4919159;29;20223;-86
2021/07/13 02:29:23;;;;;;;1.42;1.33;;;;;;;;;;4919043;29;20201;-86
2021/07/13 02:31:55;;;;;;;1.10;1.10;;;;;;;;;;4919582;29;20230;-86
2021/07/13 02:34:42;;;;;;;1.20;1.10;;;;;;;;;;4919008;29;20187;-86
2021/07/13 02:37:27;;;;;;;1.10;1.10;;;;;;;;;;4918592;29;20723;-86
2021/07/13 02:40:01;;;;;;;1.13;1.13;;;;;;;;;;4919241;29;20583;-85
2021/07/13 02:42:31;;;;;;;2.13;1.42;;;;;;;;;;4918999;29;20732;-85
2021/07/13 02:45:06;;;;;;;1.98;1.88;;;;;;;;;;4919282;29;20575;-86
2021/07/13 02:47:33;;;;;;;1.67;1.58;;;;;;;;;;4915674;29;20203;-85
2021/07/13 02:50:03;;;;;;;1.70;1.60;;;;;;;;;;4899995;29;20210;-86
2021/07/13 02:52:33;;;;;;;2.28;1.75;;;;;;;;;;4899756;29;20595;-86
2021/07/13 02:55:07;;;;;;;1.85;1.75;;;;;;;;;;4899959;29;20630;-86
2021/07/13 02:57:35;;;;;;;1.95;1.85;;;;;;;;;;4899702;29;20654;-86
2021/07/13 03:00:08;;;;;;;1.90;1.80;;;;;;;;;;4899764;29;20203;-86
2021/07/13 03:02:40;;;;;;;1.67;1.58;;;;;;;;;;4899676;29;20246;-86
2021/07/13 03:05:10;;;;;;;1.75;1.65;;;;;;;;;;4900143;29;20230;-86
2021/07/13 03:07:38;;;;;;;2.40;2.30;;;;;;;;;;4899695;29;20211;-86
2021/07/13 03:10:09;;;;;;;1.65;1.55;;;;;;;;;;4899755;29;20195;-86
2021/07/13 03:12:37;;;;;;;2.13;2.00;;;;;;;;;;4899908;29;20227;-86
2021/07/13 03:15:08;;;;;;;1.60;1.50;;;;;;;;;;4899837;29;20195;-85
2021/07/13 03:17:36;;;;;;;1.65;1.55;;;;;;;;;;4899743;29;20197;-85
2021/07/13 03:20:09;;;;;;;1.48;1.38;;;;;;;;;;4899919;29;20211;-85
2021/07/13 03:22:42;;;;;;;1.77;1.67;;;;;;;;;;4899443;29;20258;-85
2021/07/13 03:25:27;;;;;;;1.90;1.80;;;;;;;;;;4899647;29;20194;-85
2021/07/13 03:28:04;;;;;;;1.85;1.60;;;;;;;;;;4899321;29;20219;-85
2021/07/13 03:30:35;;;;;;;1.50;1.40;;;;;;;;;;4899732;29;20191;-85
2021/07/13 03:33:04;;;;;;;1.63;1.52;;;;;;;;;;4899300;29;20231;-86
2021/07/13 03:35:43;;;;;;;1.70;1.60;;;;;;;;;;4899006;29;20674;-85
2021/07/13 03:38:12;;;;;;;1.77;1.67;;;;;;;;;;4899258;29;20191;-85
2021/07/13 03:40:47;;;;;;;1.75;1.65;;;;;;;;;;4899588;29;20330;-85
2021/07/13 03:43:22;;;;;;;1.65;1.55;;;;;;;;;;4899521;29;20265;-85
2021/07/13 03:45:52;;;;;;;1.83;1.73;;;;;;;;;;4899213;29;20195;-86
2021/07/13 03:48:30;;;;;;;2.15;1.95;;;;;;;;;;4899198;29;20207;-85
2021/07/13 03:51:11;;;;;;;1.38;1.27;;;;;;;;;;4899327;29;20571;-86
2021/07/13 03:53:43;;;;;;;1.83;1.73;;;;;;;;;;4899004;29;20197;-86
2021/07/13 03:56:12;;;;;;;1.40;1.30;;;;;;;;;;4902230;29;20705;-86
2021/07/13 03:58:47;;;;;;;1.55;1.45;;;;;;;;;;4917771;29;20207;-86
2021/07/13 04:01:21;;;;;;;1.35;1.35;;;;;;;;;;4917849;29;20214;-85
2021/07/13 04:03:51;;;;;;;1.45;1.42;;;;;;;;;;4917637;29;20195;-86
2021/07/13 04:06:32;;;;;;;1.08;1.08;;;;;;;;;;4917751;29;20664;-86
2021/07/13 04:09:01;;;;;;;1.60;1.50;;;;;;;;;;4917607;29;20187;-85
2021/07/13 04:11:37;;;;;;;1.00;1.00;;;;;;;;;;4917702;29;20222;-85
2021/07/13 04:14:11;;;;;;;1.30;1.20;;;;;;;;;;4904591;29;20585;-85
2021/07/13 04:16:40;;;;;;;1.00;1.00;;;;;;;;;;4898719;29;20194;-86
2021/07/13 04:19:08;;;;;;;1.27;1.17;;;;;;;;;;4898711;29;20195;-86
2021/07/13 04:21:46;;;;;;;1.67;1.58;;;;;;;;;;4898583;29;20231;-86
2021/07/13 04:24:15;;;;;;;1.40;1.38;;;;;;;;;;4898298;29;20249;-86
2021/07/13 04:26:50;;;;;;;1.92;1.75;;;;;;;;;;4898339;29;20203;-86
2021/07/13 04:29:34;;;;;;;1.95;1.60;;;;;;;;;;4898317;29;20189;-86
2021/07/13 04:32:06;;;;;;;1.75;1.65;;;;;;;;;;4898546;29;20225;-86
2021/07/13 04:34:47;;;;;;;1.90;1.80;;;;;;;;;;4898296;29;20194;-86
2021/07/13 04:37:15;;;;;;;2.50;1.60;;;;;;;;;;4898387;29;20650;-86
2021/07/13 04:39:43;;;;;;;1.55;1.45;;;;;;;;;;4899082;29;20215;-86
2021/07/13 04:42:27;;;;;;;1.67;1.58;;;;;;;;;;4898355;29;20231;-86
2021/07/13 04:44:57;;;;;;;1.90;1.80;;;;;;;;;;4898459;29;20194;-86
2021/07/13 04:47:26;;;;;;;1.70;1.60;;;;;;;;;;4899593;29;20207;-85
2021/07/13 04:50:12;;;;;;;1.77;1.67;;;;;;;;;;4918537;29;20209;-85
2021/07/13 04:52:40;;;;;;;2.28;2.08;;;;;;;;;;4917934;29;20229;-86
2021/07/13 04:55:17;;;;;;;2.13;2.03;;;;;;;;;;4917152;29;20281;-85
2021/07/13 04:57:48;;;;;;;2.58;1.80;;;;;;;;;;4916831;29;20217;-86
2021/07/13 05:00:17;;;;;;;1.95;1.85;;;;;;;;;;4916655;29;20191;-85
2021/07/13 05:02:47;;;;;;;1.80;1.70;;;;;;;;;;4917029;29;20226;-85
2021/07/13 05:05:15;;;;;;;1.77;1.67;;;;;;;;;;4916725;29;20741;-85
2021/07/13 05:07:43;;;;;;;1.67;1.58;;;;;;;;;;4916117;29;20194;-85
2021/07/13 05:10:15;;;;;;;2.13;2.03;;;;;;;;;;4916587;29;20199;-84
2021/07/13 05:13:02;;;;;;;2.22;2.13;;;;;;;;;;4916869;29;20226;-84
2021/07/13 05:15:31;;;;;;;3.00;2.80;;;;;;;;;;4917004;29;20197;-84
2021/07/13 05:18:00;;;;;;;2.53;2.33;;;;;;;;;;4898493;29;20195;-85
2021/07/13 05:20:28;;;;;;;1.60;1.50;;;;;;;;;;4897634;29;20215;-85
2021/07/13 05:22:59;;;;;;;2.80;1.85;;;;;;;;;;4897280;29;20309;-85
2021/07/13 05:25:28;;;;;;;2.58;2.38;;;;;;;;;;4898142;29;20212;-85
2021/07/13 05:27:55;;;;;;;2.60;2.40;;;;;;;;;;4914999;29;20190;-85
2021/07/13 05:30:29;;;;;;;2.95;2.75;;;;;;;;;;4916795;29;20190;-85
2021/07/13 05:32:59;;;;;;;2.72;2.53;;;;;;;;;;4915924;29;20233;-85
2021/07/13 05:35:28;;;;;;;2.47;2.38;;;;;;;;;;4916237;29;20408;-86
2021/07/13 05:37:58;;;;;;;2.67;2.47;;;;;;;;;;4916595;29;20211;-85
2021/07/13 05:40:30;;;;;;;2.95;2.08;;;;;;;;;;4917057;29;20187;-85
2021/07/13 05:42:58;;;;;;;2.75;2.00;;;;;;;;;;4916340;29;20234;-85
2021/07/13 05:45:26;;;;;;;2.28;2.10;;;;;;;;;;4916364;29;20217;-85
2021/07/13 05:47:53;;;;;;;3.25;3.05;;;;;;;;;;4916720;29;20190;-85
2021/07/13 05:50:22;;;;;;;2.75;2.55;;;;;;;;;;4916758;29;20230;-86
2021/07/13 05:52:56;;;;;;;3.63;2.78;;;;;;;;;;4916564;29;20305;-85
2021/07/13 05:55:23;;;;;;;2.80;2.60;;;;;;;;;;4916558;29;20242;-84
2021/07/13 05:57:53;;;;;;;2.20;2.10;;;;;;;;;;4916530;29;20619;-85
2021/07/13 06:00:21;;;;;;;2.03;1.92;;;;;;;;;;4897835;29;20689;-84
2021/07/13 06:02:49;;;;;;;2.05;1.95;;;;;;;;;;4897543;29;20227;-84
2021/07/13 06:05:17;;;;;;;1.70;1.60;;;;;;;;;;4897211;29;20218;-85
2021/07/13 06:07:49;;;;;;;1.80;1.70;;;;;;;;;;4897393;29;20191;-85
2021/07/13 06:10:17;;;;;;;1.90;1.80;;;;;;;;;;4897385;29;20198;-84
2021/07/13 06:12:44;;;;;;;1.42;1.40;;;;;;;;;;4897572;29;20227;-85
2021/07/13 06:15:13;;;;;;;2.10;2.00;;;;;;;;;;4897343;29;20636;-85
2021/07/13 06:17:41;;;;;;;1.73;1.63;;;;;;;;;;4897580;29;20203;-84
2021/07/13 06:20:11;;;;;;;2.25;2.15;;;;;;;;;;4904765;29;20203;-85
2021/07/13 06:22:39;;;;;;;3.17;2.90;;;;;;;;;;4905356;29;20231;-84
2021/07/13 06:25:10;;;;;;;2.67;2.47;;;;;;;;;;4906841;29;20238;-84
2021/07/13 06:27:39;;;;;;;2.10;1.95;;;;;;;;;;4908497;29;20200;-85
2021/07/13 06:30:09;;;;;;;2.47;2.38;;;;;;;;;;4900805;29;20195;-85
2021/07/13 06:32:38;;;;;;;2.28;1.92;;;;;;;;;;4900838;29;20737;-84
2021/07/13 06:35:07;;;;;;;2.00;1.90;;;;;;;;;;4901572;29;20207;-85
2021/07/13 06:37:34;;;;;;;3.65;3.35;;;;;;;;;;4901737;29;20198;-85
2021/07/13 06:40:03;;;;;;;4.25;3.28;;;;;;;;;;4901780;29;20195;-85
2021/07/13 06:42:32;;;;;;;3.92;3.63;;;;;;;;;;4901417;29;20231;-85
2021/07/13 06:44:59;;;;;;;4.85;3.17;;;;;;;;;;4901219;29;20581;-83
2021/07/13 06:47:27;;;;;;;2.80;2.60;;;;;;;;;;4900565;29;20195;-83
2021/07/13 06:49:54;;;;;;;3.08;2.83;;;;;;;;;;4900697;29;20199;-84
2021/07/13 06:52:22;;;;;;;3.38;3.17;;;;;;;;;;4900877;29;20318;-83
2021/07/13 06:54:49;;;;;;;4.10;3.08;;;;;;;;;;4901323;29;20195;-83
2021/07/13 06:57:17;;;;;;;2.50;2.40;;;;;;;;;;4900908;29;20216;-83
2021/07/13 06:59:45;;;;;;;2.00;1.90;;;;;;;;;;4900690;29;20662;-83
2021/07/13 07:02:13;;;;;;;2.28;2.17;;;;;;;;;;4900530;29;20234;-84
2021/07/13 07:04:40;;;;;;;2.15;2.05;;;;;;;;;;4900499;29;20191;-84
2021/07/13 07:07:09;;;;;;;2.40;2.20;;;;;;;;;;4900705;29;20215;-84
2021/07/13 07:09:36;;;;;;;2.60;2.40;;;;;;;;;;4899397;29;20207;-83
2021/07/13 07:12:04;;;;;;;2.60;2.40;;;;;;;;;;4900987;29;20226;-83
2021/07/13 07:14:32;;;;;;;2.83;2.28;;;;;;;;;;4900810;29;20594;-84
2021/07/13 07:17:01;;;;;;;2.05;1.95;;;;;;;;;;4899832;29;20222;-84
2021/07/13 07:19:28;;;;;;;4.80;3.53;;;;;;;;;;4899494;29;20206;-83
2021/07/13 07:21:55;;;;;;;2.40;2.30;;;;;;;;;;4899266;29;20239;-84
2021/07/13 07:24:23;;;;;;;2.25;1.80;;;;;;;;;;4900064;29;20237;-83
2021/07/13 07:26:50;;;;;;;1.58;1.48;;;;;;;;;;4899952;29;20294;-83
2021/07/13 07:29:18;;;;;;;1.45;1.38;;;;;;;;;;4900454;29;20281;-84
2021/07/13 07:31:51;;;;;;;1.92;1.83;;;;;;;;;;4900460;29;20223;-85
2021/07/13 07:34:20;;;;;;;1.92;1.83;;;;;;;;;;4900801;29;20203;-83
2021/07/13 07:36:49;;;;;;;2.42;2.25;;;;;;;;;;4900670;29;20231;-85
2021/07/13 07:39:16;;;;;;;2.70;2.50;;;;;;;;;;4900137;29;20207;-84
2021/07/13 07:41:44;;;;;;;2.75;2.55;;;;;;;;;;4901914;29;20303;-86
2021/07/13 07:44:11;;;;;;;2.50;2.38;;;;;;;;;;4917269;29;20206;-85
2021/07/13 07:46:41;;;;;;;3.15;2.95;;;;;;;;;;4917340;29;20214;-84
2021/07/13 07:49:09;;;;;;;2.22;2.13;;;;;;;;;;4917218;29;20238;-85
2021/07/13 07:51:38;;;;;;;2.45;2.35;;;;;;;;;;4917091;29;20232;-84
2021/07/13 07:54:07;;;;;;;2.30;2.20;;;;;;;;;;4916728;29;20191;-84
2021/07/13 07:56:35;;;;;;;2.65;2.45;;;;;;;;;;4918645;29;20240;-84
2021/07/13 07:59:04;;;;;;;2.25;2.15;;;;;;;;;;4916911;29;20202;-84
2021/07/13 08:01:32;;;;;;;3.47;3.17;;;;;;;;;;4917772;29;20222;-83
2021/07/13 08:03:59;;;;;;;2.75;2.55;;;;;;;;;;4924362;29;20650;-83
2021/07/13 08:06:26;;;;;;;4.00;3.08;;;;;;;;;;4918290;29;20198;-84
2021/07/13 08:08:55;;;;;;;3.00;2.80;;;;;;;;;;4935937;29;20205;-84
2021/07/13 08:11:23;;;;;;;2.65;2.45;;;;;;;;;;4907659;29;20203;-84
2021/07/13 08:13:51;;;;;;;2.85;2.67;;;;;;;;;;4912148;29;20195;-85
2021/07/13 08:16:20;;;;;;;3.08;2.88;;;;;;;;;;4917992;29;20190;-84
2021/07/13 08:18:47;;;;;;;2.80;2.58;;;;;;;;;;4918277;29;20191;-84
2021/07/13 08:21:19;;;;;;;2.70;2.50;;;;;;;;;;4916964;29;20199;-84
2021/07/13 08:23:47;;;;;;;4.28;2.97;;;;;;;;;;4914907;29;20777;-85
2021/07/13 08:26:15;;;;;;;3.35;3.05;;;;;;;;;;4918111;29;20741;-83
2021/07/13 08:28:43;;;;;;;2.95;2.75;;;;;;;;;;4908797;29;20213;-85
2021/07/13 08:31:10;;;;;;;3.05;2.85;;;;;;;;;;4917113;29;20202;-83
2021/07/13 08:33:38;;;;;;;3.00;2.80;;;;;;;;;;4918007;29;20563;-83
2021/07/13 08:36:05;;;;;;;3.28;2.97;;;;;;;;;;4917255;29;20210;-83
2021/07/13 08:38:33;;;;;;;3.20;3.00;;;;;;;;;;4915327;29;20728;-84
2021/07/13 08:41:01;;;;;;;2.88;2.67;;;;;;;;;;4913634;29;20199;-83
2021/07/13 08:43:31;;;;;;;3.20;3.00;;;;;;;;;;4925464;29;20306;-84
2021/07/13 08:45:59;;;;;;;3.30;3.10;;;;;;;;;;4909045;29;20557;-84
2021/07/13 08:48:27;;;;;;;4.40;3.83;;;;;;;;;;4897079;29;20196;-84
2021/07/13 08:50:56;;;;;;;3.53;3.30;;;;;;;;;;4897195;29;20218;-83
2021/07/13 08:53:24;;;;;;;3.70;3.40;;;;;;;;;;4904285;29;20223;-84
2021/07/13 08:55:54;;;;;;;3.92;3.50;;;;;;;;;;4911416;29;20288;-83
2021/07/13 08:58:23;;;;;;;4.38;3.28;;;;;;;;;;4916844;29;20573;-84
2021/07/13 09:00:52;;;;;;;5.20;4.80;;;;;;;;;;4931237;29;20186;-84
2021/07/13 09:03:22;;;;;;;4.38;4.03;;;;;;;;;;4909688;29;20237;-83
2021/07/13 09:05:52;;;;;;;4.15;3.85;;;;;;;;;;4908457;29;20281;-84
2021/07/13 09:08:23;;;;;;;3.50;3.30;;;;;;;;;;4916545;29;20191;-84
2021/07/13 09:11:10;;;;;;;3.90;3.60;;;;;;;;;;4916747;29;20600;-84
2021/07/13 09:13:39;;;;;;;3.65;3.40;;;;;;;;;;4908267;29;20210;-83
2021/07/13 09:16:11;;;;;;;3.78;3.47;;;;;;;;;;4898371;29;20196;-84
2021/07/13 09:18:41;;;;;;;4.35;3.95;;;;;;;;;;4910115;29;20207;-84
2021/07/13 09:21:19;;;;;;;3.70;3.40;;;;;;;;;;4916751;29;20191;-84
2021/07/13 09:24:08;;;;;;;4.03;3.72;;;;;;;;;;4908875;29;20238;-84
2021/07/13 09:26:57;;;;;;;3.80;3.50;;;;;;;;;;4897956;29;20206;-84
2021/07/13 09:29:31;;;;;;;3.50;3.30;;;;;;;;;;4893637;29;20237;-84
2021/07/13 09:32:26;;;;;;;3.65;3.35;;;;;;;;;;4900106;29;20241;-84
2021/07/13 09:34:56;;;;;;;4.10;3.40;;;;;;;;;;4908904;29;20239;-85
2021/07/13 09:37:28;;;;;;;3.90;3.60;;;;;;;;;;4899021;29;20226;-85
2021/07/13 09:39:57;;;;;;;3.42;3.17;;;;;;;;;;4898983;29;20191;-84
2021/07/13 09:42:26;;;;;;;3.15;2.95;;;;;;;;;;4928109;29;20318;-84
2021/07/13 09:44:54;;;;;;;3.05;2.85;;;;;;;;;;4933024;29;20277;-83
2021/07/13 09:47:32;;;;;;;3.70;3.40;;;;;;;;;;4933712;29;20197;-84
2021/07/13 09:49:59;;;;;;;3.45;3.25;;;;;;;;;;4933664;29;20209;-85
2021/07/13 09:52:27;;;;;;;3.58;3.28;;;;;;;;;;4932725;29;20237;-85
2021/07/13 09:54:54;;;;;;;3.70;3.42;;;;;;;;;;4936004;29;20608;-85
2021/07/13 09:57:24;;;;;;;3.85;3.55;;;;;;;;;;4937680;29;20213;-84
2021/07/13 09:59:55;;;;;;;3.75;3.45;;;;;;;;;;4936909;29;20221;-85
2021/07/13 10:02:26;;;;;;;3.55;3.25;;;;;;;;;;4936715;29;20229;-84
2021/07/13 10:04:56;;;;;;;3.22;3.03;;;;;;;;;;4937202;29;20214;-85
2021/07/13 10:07:24;;;;;;;4.82;3.00;;;;;;;;;;4937592;29;20213;-84
2021/07/13 10:09:53;;;;;;;3.42;3.22;;;;;;;;;;4937776;29;20228;-83
2021/07/13 10:12:23;;;;;;;3.00;2.80;;;;;;;;;;4931866;29;20230;-84
2021/07/13 10:14:54;;;;;;;3.15;2.95;;;;;;;;;;4919286;29;20206;-83
2021/07/13 10:17:23;;;;;;;3.22;3.03;;;;;;;;;;4918922;29;20693;-84
2021/07/13 10:19:54;;;;;;;3.70;3.50;;;;;;;;;;4918530;29;20241;-84
2021/07/13 10:22:25;;;;;;;3.72;3.45;;;;;;;;;;4918251;29;20230;-85
2021/07/13 10:24:56;;;;;;;4.05;3.65;;;;;;;;;;4918309;29;20250;-85
2021/07/13 10:27:29;;;;;;;3.92;3.63;;;;;;;;;;4918754;29;20408;-85
2021/07/13 10:29:58;;;;;;;5.32;3.60;;;;;;;;;;4918201;29;20248;-85
2021/07/13 10:32:42;;;;;;;3.60;3.30;;;;;;;;;;4919253;29;20657;-84
2021/07/13 10:35:25;;;;;;;3.55;3.25;;;;;;;;;;4917682;29;20202;-84
2021/07/13 10:37:54;;;;;;;3.65;3.35;;;;;;;;;;4918652;29;20261;-84
2021/07/13 10:40:42;;;;;;;3.33;3.08;;;;;;;;;;4918361;29;20218;-84
2021/07/13 10:43:17;;;;;;;4.10;3.80;;;;;;;;;;4918884;29;20800;-84
2021/07/13 10:45:46;;;;;;;4.20;3.80;;;;;;;;;;4917988;29;20210;-85
2021/07/13 10:48:15;;;;;;;4.10;3.80;;;;;;;;;;4918673;29;20724;-86
2021/07/13 10:51:06;;;;;;;3.90;3.60;;;;;;;;;;4917442;29;20211;-85
2021/07/13 10:53:38;;;;;;;3.50;3.30;;;;;;;;;;4919910;29;20216;-84
2021/07/13 10:56:15;;;;;;;3.65;3.35;;;;;;;;;;4935847;29;20190;-84
2021/07/13 10:58:48;;;;;;;3.60;3.35;;;;;;;;;;4935711;29;20216;-85
2021/07/13 11:01:27;;;;;;;3.85;3.20;;;;;;;;;;4935827;29;20206;-84
2021/07/13 11:04:12;;;;;;;4.38;4.00;;;;;;;;;;4930164;29;20206;-84
2021/07/13 11:06:58;;;;;;;3.45;3.15;;;;;;;;;;4915887;29;20650;-84
2021/07/13 11:09:36;;;;;;;3.90;3.60;;;;;;;;;;4914938;29;20207;-85
2021/07/13 11:12:18;;;;;;;3.17;2.97;;;;;;;;;;4914008;29;20234;-84
2021/07/13 11:14:59;;;;;;;4.28;3.28;;;;;;;;;;4897682;29;20765;-85
2021/07/13 11:17:31;;;;;;;3.17;2.97;;;;;;;;;;4898168;29;20187;-86
2021/07/13 11:20:12;;;;;;;3.60;3.38;;;;;;;;;;4898211;29;20665;-85
2021/07/13 11:22:43;;;;;;;3.00;2.80;;;;;;;;;;4898094;29;20242;-84
2021/07/13 11:25:31;;;;;;;3.58;3.33;;;;;;;;;;4899284;29;20250;-86
2021/07/13 11:28:05;;;;;;;4.55;4.15;;;;;;;;;;4898096;29;20239;-84
2021/07/13 11:30:32;;;;;;;3.70;3.40;;;;;;;;;;4897976;29;20559;-84
2021/07/13 11:33:06;;;;;;;3.85;3.55;;;;;;;;;;4917751;29;20230;-84
2021/07/13 11:35:34;;;;;;;3.35;3.10;;;;;;;;;;4935613;29;20289;-84
2021/07/13 11:38:07;;;;;;;5.05;4.55;;;;;;;;;;4935483;29;20214;-84
2021/07/13 11:40:35;;;;;;;3.70;3.47;;;;;;;;;;4935259;29;20248;-85
2021/07/13 11:43:02;;;;;;;3.75;3.45;;;;;;;;;;4924870;29;20258;-85
2021/07/13 11:45:31;;;;;;;4.10;3.80;;;;;;;;;;4916111;29;20236;-85
2021/07/13 11:48:04;;;;;;;3.42;3.22;;;;;;;;;;4916734;29;20202;-85
2021/07/13 11:50:32;;;;;;;4.78;4.32;;;;;;;;;;4916729;29;20214;-84
2021/07/13 11:53:00;;;;;;;3.75;3.45;;;;;;;;;;4931948;29;20222;-86
2021/07/13 11:55:28;;;;;;;4.22;3.83;;;;;;;;;;4936123;29;20212;-84
2021/07/13 11:57:56;;;;;;;5.35;4.50;;;;;;;;;;4935669;29;20197;-85
2021/07/13 12:00:30;;;;;;;4.07;3.78;;;;;;;;;;4935305;29;20205;-84
2021/07/13 12:02:57;;;;;;;4.32;4.00;;;;;;;;;;4934455;29;20217;-84
2021/07/13 12:05:27;;;;;;;4.22;3.83;;;;;;;;;;4935472;29;20252;-84
2021/07/13 12:07:54;;;;;;;3.75;3.50;;;;;;;;;;4928349;29;20218;-84
2021/07/13 12:10:24;;;;;;;4.13;3.83;;;;;;;;;;4915828;29;20225;-85
2021/07/13 12:12:53;;;;;;;5.53;5.13;;;;;;;;;;4924698;29;20221;-84
2021/07/13 12:15:23;;;;;;;4.68;4.38;;;;;;;;;;4935189;29;20194;-84
2021/07/13 12:17:52;;;;;;;4.15;3.85;;;;;;;;;;4934882;29;20641;-85
2021/07/13 12:20:19;;;;;;;2.92;2.72;;;;;;;;;;4934675;29;20297;-85
2021/07/13 12:22:47;;;;;;;4.43;4.03;;;;;;;;;;4934852;29;20311;-84
2021/07/13 12:25:14;;;;;;;4.43;4.13;;;;;;;;;;4934983;29;20281;-85
2021/07/13 12:27:42;;;;;;;4.00;3.67;;;;;;;;;;4935331;29;20210;-84
2021/07/13 12:30:14;;;;;;;4.18;3.88;;;;;;;;;;4935065;29;20632;-84
2021/07/13 12:32:43;;;;;;;3.83;3.55;;;;;;;;;;4927843;29;20732;-84
2021/07/13 12:35:15;;;;;;;4.53;4.22;;;;;;;;;;4916741;29;20270;-85
2021/07/13 12:37:43;;;;;;;4.60;4.15;;;;;;;;;;4916373;29;20302;-84
2021/07/13 12:40:13;;;;;;;4.13;3.83;;;;;;;;;;4915754;29;20230;-84
2021/07/13 12:42:43;;;;;;;3.65;3.45;;;;;;;;;;4916103;29;20228;-84
2021/07/13 12:45:17;;;;;;;4.05;3.65;;;;;;;;;;4915957;29;20234;-85
2021/07/13 12:47:46;;;;;;;4.00;3.70;;;;;;;;;;4916996;29;20193;-84
2021/07/13 12:50:20;;;;;;;3.53;3.33;;;;;;;;;;4916414;29;20214;-85
2021/07/13 12:52:54;;;;;;;3.88;3.58;;;;;;;;;;4915108;29;20228;-85
2021/07/13 12:55:31;;;;;;;3.30;3.05;;;;;;;;;;4915998;29;20278;-86
2021/07/13 12:58:14;;;;;;;2.78;2.58;;;;;;;;;;4915940;29;20210;-84
2021/07/13 13:00:45;;;;;;;2.67;2.47;;;;;;;;;;4916310;29;20296;-86
2021/07/13 13:03:15;;;;;;;3.83;3.08;;;;;;;;;;4916137;29;20230;-84
2021/07/13 13:05:44;;;;;;;2.90;2.70;;;;;;;;;;4900735;29;20259;-84
2021/07/13 13:08:14;;;;;;;3.10;2.90;;;;;;;;;;4897693;29;20206;-85
2021/07/13 13:10:45;;;;;;;3.00;2.80;;;;;;;;;;4897467;29;20211;-84
2021/07/13 13:13:23;;;;;;;3.53;2.80;;;;;;;;;;4920017;29;20225;-85
2021/07/13 13:15:52;;;;;;;4.43;2.70;;;;;;;;;;4934795;29;20267;-84
2021/07/13 13:18:19;;;;;;;3.10;2.90;;;;;;;;;;4920769;29;20202;-84
2021/07/13 13:20:47;;;;;;;2.88;2.67;;;;;;;;;;4915425;29;20209;-85
2021/07/13 13:23:15;;;;;;;2.45;2.25;;;;;;;;;;4928146;29;20231;-87
2021/07/13 13:25:43;;;;;;;2.67;2.47;;;;;;;;;;4935182;29;20205;-86
2021/07/13 13:28:14;;;;;;;2.50;2.33;;;;;;;;;;4934851;29;20190;-86
2021/07/13 13:30:42;;;;;;;2.70;2.50;;;;;;;;;;4936394;29;20190;-85
2021/07/13 13:33:13;;;;;;;2.53;2.42;;;;;;;;;;4936315;29;20233;-86
2021/07/13 13:35:49;;;;;;;2.90;2.70;;;;;;;;;;4935233;29;20213;-86
2021/07/13 13:38:36;;;;;;;3.15;2.30;;;;;;;;;;4936339;29;20614;-85
2021/07/13 13:41:04;;;;;;;2.63;2.42;;;;;;;;;;4936608;29;20201;-85
2021/07/13 13:43:32;;;;;;;3.08;2.88;;;;;;;;;;4922244;29;20250;-85
2021/07/13 13:46:01;;;;;;;2.53;2.33;;;;;;;;;;4916508;29;20323;-85
2021/07/13 13:48:29;;;;;;;3.72;2.53;;;;;;;;;;4935498;29;20248;-85
2021/07/13 13:50:57;;;;;;;2.92;2.72;;;;;;;;;;4935147;29;20190;-85
2021/07/13 13:53:25;;;;;;;2.85;2.65;;;;;;;;;;4934793;29;20682;-84
2021/07/13 13:55:53;;;;;;;3.03;2.83;;;;;;;;;;4934872;29;20618;-86
2021/07/13 13:58:21;;;;;;;2.92;2.72;;;;;;;;;;4935641;29;20190;-84
2021/07/13 14:00:48;;;;;;;2.90;2.70;;;;;;;;;;4936027;29;20209;-85
2021/07/13 14:03:16;;;;;;;3.17;2.80;;;;;;;;;;4935245;29;20222;-85
2021/07/13 14:05:45;;;;;;;6.45;3.20;;;;;;;;;;4926305;29;20213;-86
2021/07/13 14:08:12;;;;;;;2.88;2.67;;;;;;;;;;4916896;29;20665;-86
2021/07/13 14:10:40;;;;;;;5.90;3.38;;;;;;;;;;4917546;29;20234;-84
2021/07/13 14:13:07;;;;;;;3.42;3.17;;;;;;;;;;4927934;29;20226;-86
2021/07/13 14:15:35;;;;;;;3.60;3.40;;;;;;;;;;4924147;29;20878;-86
2021/07/13 14:18:03;;;;;;;3.95;3.65;;;;;;;;;;4899891;29;20674;-85
2021/07/13 14:20:30;;;;;;;4.57;4.28;;;;;;;;;;4898102;29;20191;-85
2021/07/13 14:22:59;;;;;;;3.63;3.35;;;;;;;;;;4909164;29;20253;-85
2021/07/13 14:25:28;;;;;;;3.53;3.33;;;;;;;;;;4923481;29;20233;-87
2021/07/13 14:27:56;;;;;;;3.67;3.47;;;;;;;;;;4923255;29;20207;-88
2021/07/13 14:30:25;;;;;;;3.47;3.28;;;;;;;;;;4896375;29;20301;-87
2021/07/13 14:32:52;;;;;;;4.32;3.80;;;;;;;;;;4913687;29;20221;-85
2021/07/13 14:35:20;;;;;;;2.90;2.70;;;;;;;;;;4934649;29;20205;-86
2021/07/13 14:37:48;;;;;;;3.28;2.78;;;;;;;;;;4930527;29;20193;-86
2021/07/13 14:40:17;;;;;;;4.13;3.83;;;;;;;;;;4900365;29;20203;-85
2021/07/13 14:42:45;;;;;;;5.55;3.63;;;;;;;;;;4908653;29;20215;-85
2021/07/13 14:45:13;;;;;;;3.50;3.30;;;;;;;;;;4919394;29;20820;-85
2021/07/13 14:47:42;;;;;;;3.60;3.30;;;;;;;;;;4929050;29;20214;-86
2021/07/13 14:50:11;;;;;;;3.15;2.95;;;;;;;;;;4938735;29;20204;-85
2021/07/13 14:52:39;;;;;;;3.28;3.08;;;;;;;;;;4938807;29;20222;-85
2021/07/13 14:55:08;;;;;;;3.97;3.67;;;;;;;;;;4938634;29;20213;-86
2021/07/13 14:57:38;;;;;;;3.30;3.10;;;;;;;;;;4939213;29;20186;-85
2021/07/13 15:00:08;;;;;;;3.67;3.38;;;;;;;;;;4939352;29;20253;-86
2021/07/13 15:02:36;;;;;;;2.88;2.70;;;;;;;;;;4932146;29;20228;-84
2021/07/13 15:05:07;;;;;;;3.30;3.10;;;;;;;;;;4907013;29;20244;-88
2021/07/13 15:07:34;;;;;;;3.55;3.35;;;;;;;;;;4900371;29;20227;-86